createdAt,value
2023-02-11T00:01:10.195Z,100.00
2023-02-11T00:03:37.215Z,100.00
2023-02-11T00:06:06.417Z,100.00
2023-02-11T00:08:32.917Z,100.00
2023-02-11T00:11:01.668Z,100.00
2023-02-11T00:13:28.228Z,100.00
2023-02-11T00:15:55.406Z,100.00
2023-02-11T00:18:21.929Z,100.00
2023-02-11T00:20:48.429Z,100.00
2023-02-11T00:23:15.307Z,100.00
2023-02-11T00:25:43.799Z,100.00
2023-02-11T00:28:11.043Z,100.00
2023-02-11T00:30:37.652Z,100.00
2023-02-11T00:33:04.407Z,100.00
2023-02-11T00:35:30.892Z,100.00
2023-02-11T00:37:57.322Z,100.00
2023-02-11T00:40:23.798Z,100.00
2023-02-11T00:42:51.950Z,100.00
2023-02-11T00:45:20.832Z,100.00
2023-02-11T00:47:47.442Z,100.00
2023-02-11T00:50:13.919Z,100.00
2023-02-11T00:52:40.327Z,100.00
2023-02-11T00:55:07.669Z,100.00
2023-02-11T00:57:34.440Z,100.00
2023-02-11T01:00:00.910Z,100.00
2023-02-11T01:02:27.399Z,100.00
2023-02-11T01:04:53.905Z,100.00
2023-02-11T01:07:20.308Z,100.00
2023-02-11T01:09:46.721Z,100.00
2023-02-11T01:12:13.153Z,100.00
2023-02-11T01:14:39.576Z,100.00
2023-02-11T01:17:06.478Z,100.00
2023-02-11T01:19:33.196Z,100.00
2023-02-11T01:21:59.770Z,100.00
2023-02-11T01:24:26.264Z,100.00
2023-02-11T01:26:52.714Z,100.00
2023-02-11T01:29:19.437Z,100.00
2023-02-11T01:31:45.878Z,100.00
2023-02-11T01:34:12.551Z,100.00
2023-02-11T01:36:39.005Z,100.00
2023-02-11T01:39:05.520Z,100.00
2023-02-11T01:41:32.167Z,100.00
2023-02-11T01:43:58.607Z,100.00
2023-02-11T01:46:35.210Z,100.00
2023-02-11T01:49:06.547Z,100.00
2023-02-11T01:51:41.517Z,100.00
2023-02-11T01:54:28.760Z,100.00
2023-02-11T01:57:17.968Z,100.00
2023-02-11T01:59:50.561Z,100.00
2023-02-11T02:02:21.591Z,100.00
2023-02-11T02:05:02.729Z,100.00
2023-02-11T02:07:36.248Z,100.00
2023-02-11T02:10:17.044Z,100.00
2023-02-11T02:12:43.625Z,100.00
2023-02-11T02:15:25.808Z,100.00
2023-02-11T02:18:27.663Z,100.00
2023-02-11T02:21:22.065Z,100.00
2023-02-11T02:24:16.753Z,100.00
2023-02-11T02:27:08.098Z,100.00
2023-02-11T02:30:02.528Z,100.00
2023-02-11T02:32:37.954Z,100.00
2023-02-11T02:35:22.923Z,100.00
2023-02-11T02:38:01.608Z,100.00
2023-02-11T02:40:33.373Z,100.00
2023-02-11T02:43:01.895Z,100.00
2023-02-11T02:45:28.493Z,100.00
2023-02-11T02:47:55.034Z,100.00
2023-02-11T02:50:30.197Z,100.00
2023-02-11T02:53:06.187Z,100.00
2023-02-11T02:55:49.056Z,100.00
2023-02-11T02:58:46.041Z,100.00
2023-02-11T03:01:25.604Z,100.00
2023-02-11T03:04:06.429Z,100.00
2023-02-11T03:06:35.842Z,100.00
2023-02-11T03:09:24.245Z,100.00
2023-02-11T03:11:50.793Z,100.00
2023-02-11T03:14:19.006Z,100.00
2023-02-11T03:16:49.057Z,100.00
2023-02-11T03:19:21.369Z,100.00
2023-02-11T03:21:51.699Z,100.00
2023-02-11T03:24:35.551Z,100.00
2023-02-11T03:27:12.236Z,100.00
2023-02-11T03:29:56.451Z,99.82
2023-02-11T03:32:31.977Z,99.34
2023-02-11T03:35:05.583Z,99.72
2023-02-11T03:37:37.780Z,99.49
2023-02-11T03:40:12.355Z,98.38
2023-02-11T03:42:44.229Z,97.88
2023-02-11T03:45:14.301Z,97.64
2023-02-11T03:47:46.353Z,97.54
2023-02-11T03:50:15.337Z,97.18
2023-02-11T03:52:42.472Z,97.58
2023-02-11T03:55:15.843Z,97.97
2023-02-11T03:57:42.361Z,97.75
2023-02-11T04:00:10.424Z,97.59
2023-02-11T04:02:39.504Z,97.66
2023-02-11T04:05:10.405Z,97.38
2023-02-11T04:07:36.845Z,97.00
2023-02-11T04:10:04.305Z,96.36
2023-02-11T04:12:30.766Z,97.15
2023-02-11T04:14:57.201Z,96.33
2023-02-11T04:17:24.171Z,96.30
2023-02-11T04:19:50.583Z,95.79
2023-02-11T04:22:17.008Z,94.96
2023-02-11T04:24:44.159Z,95.14
2023-02-11T04:27:11.658Z,94.42
2023-02-11T04:29:38.069Z,94.82
2023-02-11T04:32:04.616Z,95.10
2023-02-11T04:34:31.317Z,94.18
2023-02-11T04:36:57.859Z,94.91
2023-02-11T04:39:24.337Z,95.19
2023-02-11T04:41:50.736Z,94.32
2023-02-11T04:44:17.133Z,95.49
2023-02-11T04:46:43.573Z,95.22
2023-02-11T04:49:13.480Z,95.84
2023-02-11T04:51:40.179Z,96.46
2023-02-11T04:54:06.620Z,95.43
2023-02-11T04:56:33.111Z,95.38
2023-02-11T04:58:59.521Z,95.26
2023-02-11T05:01:26.157Z,95.99
2023-02-11T05:03:52.681Z,94.89
2023-02-11T05:06:19.154Z,95.00
2023-02-11T05:08:45.602Z,94.99
2023-02-11T05:11:20.645Z,96.04
2023-02-11T05:13:47.510Z,96.49
2023-02-11T05:16:15.266Z,97.10
2023-02-11T05:18:43.190Z,96.48
2023-02-11T05:21:11.781Z,96.38
2023-02-11T05:23:39.583Z,96.69
2023-02-11T05:26:07.242Z,96.78
2023-02-11T05:28:34.015Z,96.58
2023-02-11T05:31:01.045Z,97.35
2023-02-11T05:33:27.747Z,97.43
2023-02-11T05:36:05.850Z,97.30
2023-02-11T05:38:33.294Z,96.65
2023-02-11T05:41:00.032Z,96.28
2023-02-11T05:43:26.461Z,95.84
2023-02-11T05:45:53.388Z,95.68
2023-02-11T05:48:19.988Z,95.69
2023-02-11T05:50:46.451Z,95.47
2023-02-11T05:53:13.035Z,94.99
2023-02-11T05:55:39.747Z,96.03
2023-02-11T05:58:07.030Z,95.99
2023-02-11T06:00:34.435Z,96.82
2023-02-11T06:03:00.981Z,96.48
2023-02-11T06:05:27.478Z,96.40
2023-02-11T06:07:54.111Z,97.55
2023-02-11T06:10:20.644Z,96.59
2023-02-11T06:12:47.124Z,96.37
2023-02-11T06:15:13.654Z,96.54
2023-02-11T06:17:40.076Z,96.67
2023-02-11T06:20:08.563Z,95.62
2023-02-11T06:22:35.287Z,95.87
2023-02-11T06:25:02.448Z,97.26
2023-02-11T06:27:29.534Z,97.56
2023-02-11T06:29:55.953Z,98.62
2023-02-11T06:32:42.300Z,98.38
2023-02-11T06:35:11.459Z,99.77
2023-02-11T06:37:38.496Z,98.42
2023-02-11T06:40:05.374Z,99.35
2023-02-11T06:42:31.840Z,99.25
2023-02-11T06:45:01.277Z,99.14
2023-02-11T06:47:27.721Z,99.36
2023-02-11T06:49:54.269Z,98.86
2023-02-11T06:52:20.717Z,99.26
2023-02-11T06:54:47.134Z,99.60
2023-02-11T06:57:13.584Z,98.77
2023-02-11T06:59:40.016Z,98.26
2023-02-11T07:02:06.898Z,99.11
2023-02-11T07:04:33.306Z,99.72
2023-02-11T07:06:59.761Z,99.34
2023-02-11T07:09:26.200Z,99.47
2023-02-11T07:11:53.014Z,99.13
2023-02-11T07:14:19.614Z,98.88
2023-02-11T07:16:46.079Z,97.73
2023-02-11T07:19:12.466Z,97.49
2023-02-11T07:21:39.013Z,97.12
2023-02-11T07:24:11.049Z,97.23
2023-02-11T07:26:37.973Z,96.25
2023-02-11T07:29:04.395Z,95.22
2023-02-11T07:31:31.319Z,95.10
2023-02-11T07:34:00.228Z,95.17
2023-02-11T07:36:28.040Z,94.04
2023-02-11T07:38:54.677Z,93.84
2023-02-11T07:41:23.291Z,91.28
2023-02-11T07:43:50.353Z,89.31
2023-02-11T07:46:35.752Z,86.78
2023-02-11T07:49:02.358Z,85.23
2023-02-11T07:51:30.757Z,84.98
2023-02-11T07:53:59.133Z,84.34
2023-02-11T07:56:26.275Z,84.93
2023-02-11T07:59:01.140Z,86.12
2023-02-11T08:01:30.451Z,86.09
2023-02-11T08:04:00.096Z,87.65
2023-02-11T08:06:29.372Z,88.89
2023-02-11T08:08:55.833Z,88.21
2023-02-11T08:11:25.588Z,88.64
2023-02-11T08:13:53.116Z,90.78
2023-02-11T08:16:28.081Z,91.36
2023-02-11T08:18:57.793Z,92.64
2023-02-11T08:21:28.544Z,92.81
2023-02-11T08:23:55.916Z,92.22
2023-02-11T08:26:26.186Z,91.78
2023-02-11T08:28:54.892Z,92.36
2023-02-11T08:31:24.208Z,92.27
2023-02-11T08:33:51.240Z,92.06
2023-02-11T08:36:23.623Z,91.64
2023-02-11T08:38:50.324Z,91.77
2023-02-11T08:41:17.453Z,90.71
2023-02-11T08:43:45.013Z,90.32
2023-02-11T08:46:17.031Z,90.53
2023-02-11T08:48:47.743Z,90.05
2023-02-11T08:51:18.574Z,89.11
2023-02-11T08:53:46.239Z,88.81
2023-02-11T08:56:13.996Z,88.64
2023-02-11T08:58:40.798Z,88.57
2023-02-11T09:01:22.300Z,87.78
2023-02-11T09:03:49.508Z,87.44
2023-02-11T09:06:17.608Z,87.12
2023-02-11T09:08:51.654Z,87.24
2023-02-11T09:11:20.617Z,86.38
2023-02-11T09:13:47.027Z,85.17
2023-02-11T09:16:26.122Z,85.97
2023-02-11T09:18:53.314Z,86.51
2023-02-11T09:21:20.304Z,86.64
2023-02-11T09:23:47.901Z,86.29
2023-02-11T09:26:25.796Z,86.06
2023-02-11T09:28:52.659Z,85.99
2023-02-11T09:31:24.736Z,87.02
2023-02-11T09:33:55.221Z,86.61
2023-02-11T09:36:28.952Z,87.08
2023-02-11T09:38:57.483Z,87.58
2023-02-11T09:41:23.845Z,87.53
2023-02-11T09:43:57.139Z,86.95
2023-02-11T09:46:25.890Z,86.96
2023-02-11T09:48:57.398Z,87.24
2023-02-11T09:51:39.741Z,87.94
2023-02-11T09:54:15.398Z,87.68
2023-02-11T09:56:41.904Z,86.78
2023-02-11T09:59:14.382Z,85.93
2023-02-11T10:01:47.958Z,85.31
2023-02-11T10:04:39.707Z,85.21
2023-02-11T10:07:25.341Z,84.92
2023-02-11T10:10:13.010Z,84.98
2023-02-11T10:12:58.208Z,85.63
2023-02-11T10:15:44.912Z,85.68
2023-02-11T10:18:47.016Z,85.74
2023-02-11T10:21:41.459Z,84.22
2023-02-11T10:24:12.764Z,84.45
2023-02-11T10:26:40.630Z,84.20
2023-02-11T10:29:42.121Z,83.25
2023-02-11T10:32:44.440Z,83.51
2023-02-11T10:35:21.233Z,82.13
2023-02-11T10:37:48.183Z,81.22
2023-02-11T10:40:25.510Z,80.46
2023-02-11T10:42:55.843Z,81.00
2023-02-11T10:45:25.164Z,81.07
2023-02-11T10:47:51.773Z,81.75
2023-02-11T10:50:25.367Z,82.32
2023-02-11T10:52:52.102Z,82.72
2023-02-11T10:55:22.101Z,82.52
2023-02-11T10:58:02.955Z,82.08
2023-02-11T11:00:40.172Z,82.09
2023-02-11T11:03:19.815Z,81.93
2023-02-11T11:05:55.076Z,81.26
2023-02-11T11:08:37.277Z,79.85
2023-02-11T11:11:18.519Z,80.45
2023-02-11T11:13:54.290Z,81.09
2023-02-11T11:16:25.225Z,81.46
2023-02-11T11:19:13.693Z,81.01
2023-02-11T11:21:46.016Z,80.39
2023-02-11T11:24:27.942Z,81.07
2023-02-11T11:26:57.089Z,81.55
2023-02-11T11:29:34.812Z,81.29
2023-02-11T11:32:27.905Z,81.38
2023-02-11T11:35:02.695Z,81.66
2023-02-11T11:37:32.193Z,81.84
2023-02-11T11:40:21.937Z,81.08
2023-02-11T11:43:04.508Z,80.87
2023-02-11T11:45:30.981Z,81.37
2023-02-11T11:48:21.548Z,81.61
2023-02-11T11:50:53.624Z,82.40
2023-02-11T11:53:39.497Z,82.90
2023-02-11T11:56:24.273Z,83.02
2023-02-11T11:58:51.195Z,82.84
2023-02-11T12:01:50.491Z,81.84
2023-02-11T12:04:54.102Z,81.76
2023-02-11T12:07:32.802Z,81.76
2023-02-11T12:10:28.966Z,81.49
2023-02-11T12:13:08.459Z,81.15
2023-02-11T12:16:07.740Z,82.01
2023-02-11T12:19:02.433Z,81.91
2023-02-11T12:21:34.310Z,82.11
2023-02-11T12:24:29.169Z,81.16
2023-02-11T12:27:19.968Z,81.22
2023-02-11T12:30:03.293Z,80.64
2023-02-11T12:32:43.839Z,80.61
2023-02-11T12:35:30.981Z,81.09
2023-02-11T12:38:22.298Z,80.24
2023-02-11T12:41:04.695Z,79.85
2023-02-11T12:43:40.182Z,79.78
2023-02-11T12:46:33.428Z,79.22
2023-02-11T12:49:05.811Z,79.58
2023-02-11T12:51:32.215Z,80.39
2023-02-11T12:54:17.287Z,81.12
2023-02-11T12:56:50.771Z,81.46
2023-02-11T12:59:30.566Z,82.08
2023-02-11T13:01:59.588Z,82.88
2023-02-11T13:04:33.324Z,83.45
2023-02-11T13:07:05.520Z,83.35
2023-02-11T13:09:51.225Z,83.42
2023-02-11T13:12:37.130Z,83.45
2023-02-11T13:15:07.667Z,83.06
2023-02-11T13:17:41.391Z,83.13
2023-02-11T13:20:21.293Z,84.73
2023-02-11T13:23:02.881Z,84.20
2023-02-11T13:25:33.434Z,84.85
2023-02-11T13:28:25.062Z,84.43
2023-02-11T13:31:01.923Z,84.51
2023-02-11T13:33:36.588Z,84.42
2023-02-11T13:36:04.707Z,83.95
2023-02-11T13:38:32.446Z,83.23
2023-02-11T13:41:22.276Z,82.08
2023-02-11T13:44:10.554Z,80.88
2023-02-11T13:46:54.326Z,81.02
2023-02-11T13:49:24.975Z,81.34
2023-02-11T13:51:52.654Z,81.52
2023-02-11T13:54:24.950Z,81.76
2023-02-11T13:57:16.240Z,81.41
2023-02-11T13:59:42.572Z,81.66
2023-02-11T14:02:51.243Z,82.28
2023-02-11T14:05:49.043Z,82.98
2023-02-11T14:08:42.733Z,83.63
2023-02-11T14:11:24.203Z,84.24
2023-02-11T14:13:50.551Z,83.83
2023-02-11T14:16:36.454Z,83.99
2023-02-11T14:19:06.131Z,83.99
2023-02-11T14:21:39.395Z,83.11
2023-02-11T14:24:06.938Z,83.59
2023-02-11T14:26:42.384Z,83.81
2023-02-11T14:29:17.941Z,84.80
2023-02-11T14:31:44.413Z,84.95
2023-02-11T14:34:48.586Z,84.69
2023-02-11T14:37:30.590Z,84.86
2023-02-11T14:40:31.827Z,85.84
2023-02-11T14:43:06.220Z,85.61
2023-02-11T14:45:35.463Z,86.04
2023-02-11T14:48:15.089Z,85.74
2023-02-11T14:50:44.653Z,86.67
2023-02-11T14:53:17.558Z,87.90
2023-02-11T14:55:47.227Z,87.98
2023-02-11T14:58:18.164Z,87.64
2023-02-11T15:00:57.018Z,87.98
2023-02-11T15:03:41.386Z,88.69
2023-02-11T15:06:21.078Z,89.57
2023-02-11T15:08:54.417Z,89.27
2023-02-11T15:11:23.786Z,89.41
2023-02-11T15:13:52.572Z,89.22
2023-02-11T15:16:24.093Z,89.60
2023-02-11T15:18:55.109Z,89.58
2023-02-11T15:21:30.405Z,89.11
2023-02-11T15:23:58.162Z,89.58
2023-02-11T15:26:24.561Z,89.70
2023-02-11T15:28:53.617Z,89.57
2023-02-11T15:31:27.933Z,90.81
2023-02-11T15:33:54.618Z,91.68
2023-02-11T15:36:28.493Z,91.59
2023-02-11T15:39:18.153Z,92.16
2023-02-11T15:41:44.761Z,91.85
2023-02-11T15:44:28.559Z,92.33
2023-02-11T15:46:55.280Z,92.65
2023-02-11T15:49:23.226Z,92.11
2023-02-11T15:51:50.670Z,92.71
2023-02-11T15:54:24.118Z,93.44
2023-02-11T15:56:52.408Z,93.56
2023-02-11T15:59:30.851Z,93.83
2023-02-11T16:02:16.037Z,92.63
2023-02-11T16:04:52.049Z,92.95
2023-02-11T16:07:40.563Z,92.98
2023-02-11T16:10:39.524Z,93.03
2023-02-11T16:13:05.877Z,93.68
2023-02-11T16:15:38.115Z,94.55
2023-02-11T16:18:14.968Z,94.56
2023-02-11T16:20:46.333Z,95.19
2023-02-11T16:23:21.568Z,95.19
2023-02-11T16:25:48.201Z,95.72
2023-02-11T16:28:16.308Z,94.97
2023-02-11T16:30:43.319Z,95.09
2023-02-11T16:33:11.234Z,96.28
2023-02-11T16:35:38.325Z,96.44
2023-02-11T16:38:04.734Z,96.35
2023-02-11T16:40:31.155Z,96.56
2023-02-11T16:42:57.593Z,95.26
2023-02-11T16:45:24.070Z,97.46
2023-02-11T16:47:50.525Z,96.74
2023-02-11T16:50:25.595Z,96.24
2023-02-11T16:52:52.695Z,97.79
2023-02-11T16:55:21.942Z,98.05
2023-02-11T16:57:48.856Z,97.75
2023-02-11T17:00:17.375Z,97.41
2023-02-11T17:02:44.050Z,98.36
2023-02-11T17:05:20.124Z,98.99
2023-02-11T17:07:46.817Z,97.73
2023-02-11T17:10:15.350Z,98.67
2023-02-11T17:12:41.735Z,99.48
2023-02-11T17:15:08.613Z,99.38
2023-02-11T17:17:35.286Z,98.98
2023-02-11T17:20:01.727Z,99.01
2023-02-11T17:22:28.141Z,99.61
2023-02-11T17:24:57.073Z,99.97
2023-02-11T17:27:23.404Z,100.00
2023-02-11T17:29:49.812Z,100.00
2023-02-11T17:32:16.520Z,100.00
2023-02-11T17:34:43.004Z,100.00
2023-02-11T17:37:09.604Z,100.00
2023-02-11T17:39:36.877Z,100.00
2023-02-11T17:42:03.948Z,100.00
2023-02-11T17:44:30.335Z,100.00
2023-02-11T17:46:56.752Z,100.00
2023-02-11T17:49:23.144Z,100.00
2023-02-11T17:51:49.652Z,100.00
2023-02-11T17:54:18.475Z,100.00
2023-02-11T17:56:46.261Z,100.00
2023-02-11T17:59:13.404Z,100.00
2023-02-11T18:01:41.187Z,100.00
2023-02-11T18:04:10.519Z,100.00
2023-02-11T18:06:37.010Z,100.00
2023-02-11T18:09:04.351Z,100.00
2023-02-11T18:11:33.309Z,100.00
2023-02-11T18:14:04.595Z,100.00
2023-02-11T18:16:31.465Z,100.00
2023-02-11T18:18:58.394Z,100.00
2023-02-11T18:21:25.290Z,100.00
2023-02-11T18:23:51.857Z,100.00
2023-02-11T18:26:20.790Z,100.00
2023-02-11T18:28:47.547Z,100.00
2023-02-11T18:31:14.754Z,100.00
2023-02-11T18:33:42.241Z,100.00
2023-02-11T18:36:13.786Z,100.00
2023-02-11T18:38:41.048Z,100.00
2023-02-11T18:41:08.266Z,100.00
2023-02-11T18:43:35.515Z,100.00
2023-02-11T18:46:07.137Z,100.00
2023-02-11T18:48:33.571Z,100.00
2023-02-11T18:50:59.989Z,100.00
2023-02-11T18:53:26.426Z,100.00
2023-02-11T18:55:53.676Z,100.00
2023-02-11T18:58:21.319Z,100.00
2023-02-11T19:00:48.784Z,100.00
2023-02-11T19:03:15.280Z,100.00
2023-02-11T19:05:51.111Z,100.00
2023-02-11T19:08:17.746Z,100.00
2023-02-11T19:10:46.947Z,100.00
2023-02-11T19:13:13.867Z,100.00
2023-02-11T19:15:44.911Z,100.00
2023-02-11T19:18:13.783Z,100.00
2023-02-11T19:20:44.192Z,100.00
2023-02-11T19:23:11.307Z,100.00
2023-02-11T19:25:38.290Z,100.00
2023-02-11T19:28:10.394Z,100.00
2023-02-11T19:30:36.976Z,100.00
2023-02-11T19:33:03.492Z,100.00
2023-02-11T19:35:30.018Z,100.00
2023-02-11T19:37:56.429Z,100.00
2023-02-11T19:40:22.891Z,100.00
2023-02-11T19:42:49.296Z,100.00
2023-02-11T19:45:15.754Z,100.00
2023-02-11T19:47:42.324Z,100.00
2023-02-11T19:50:09.464Z,100.00
2023-02-11T19:52:40.290Z,100.00
2023-02-11T19:55:07.902Z,100.00
2023-02-11T19:57:34.428Z,100.00
2023-02-11T20:00:01.427Z,100.00
2023-02-11T20:02:29.240Z,100.00
2023-02-11T20:04:55.748Z,100.00
2023-02-11T20:07:22.207Z,100.00
2023-02-11T20:09:48.651Z,100.00
2023-02-11T20:12:15.127Z,100.00
2023-02-11T20:14:41.580Z,100.00
2023-02-11T20:17:08.006Z,100.00
2023-02-11T20:19:34.541Z,100.00
2023-02-11T20:22:01.011Z,100.00
2023-02-11T20:24:27.445Z,100.00
2023-02-11T20:26:56.047Z,100.00
2023-02-11T20:29:23.743Z,100.00
2023-02-11T20:31:50.713Z,100.00
2023-02-11T20:34:17.900Z,100.00
2023-02-11T20:36:51.724Z,100.00
2023-02-11T20:39:21.659Z,100.00
2023-02-11T20:41:48.628Z,100.00
2023-02-11T20:44:15.496Z,100.00
2023-02-11T20:46:46.392Z,100.00
2023-02-11T20:49:15.288Z,100.00
2023-02-11T20:51:42.294Z,100.00
2023-02-11T20:54:13.378Z,100.00
2023-02-11T20:56:39.889Z,100.00
2023-02-11T20:59:07.244Z,100.00
2023-02-11T21:01:37.113Z,100.00
2023-02-11T21:04:07.130Z,100.00
2023-02-11T21:06:42.946Z,100.00
2023-02-11T21:09:13.512Z,100.00
2023-02-11T21:11:40.487Z,100.00
2023-02-11T21:14:07.277Z,100.00
2023-02-11T21:16:33.993Z,100.00
2023-02-11T21:19:03.409Z,100.00
2023-02-11T21:21:30.758Z,100.00
2023-02-11T21:23:58.448Z,100.00
2023-02-11T21:26:25.843Z,100.00
2023-02-11T21:28:52.572Z,100.00
2023-02-11T21:31:23.136Z,100.00
2023-02-11T21:33:51.154Z,100.00
2023-02-11T21:36:17.913Z,100.00
2023-02-11T21:38:44.756Z,100.00
2023-02-11T21:41:11.770Z,100.00
2023-02-11T21:43:38.729Z,100.00
2023-02-11T21:46:10.445Z,100.00
2023-02-11T21:48:37.224Z,100.00
2023-02-11T21:51:09.596Z,100.00
2023-02-11T21:53:36.037Z,100.00
2023-02-11T21:56:12.309Z,100.00
2023-02-11T21:58:38.949Z,100.00
2023-02-11T22:01:17.532Z,100.00
2023-02-11T22:03:44.721Z,100.00
2023-02-11T22:06:16.727Z,100.00
2023-02-11T22:08:43.268Z,100.00
2023-02-11T22:11:12.291Z,100.00
2023-02-11T22:13:39.057Z,100.00
2023-02-11T22:16:08.236Z,100.00
2023-02-11T22:18:35.022Z,100.00
2023-02-11T22:21:03.831Z,100.00
2023-02-11T22:23:31.330Z,100.00
2023-02-11T22:25:58.325Z,100.00
2023-02-11T22:28:27.817Z,100.00
2023-02-11T22:30:56.316Z,100.00
2023-02-11T22:33:24.357Z,100.00
2023-02-11T22:35:58.546Z,100.00
2023-02-11T22:38:25.222Z,100.00
2023-02-11T22:40:51.706Z,100.00
2023-02-11T22:43:18.185Z,100.00
2023-02-11T22:45:44.687Z,100.00
2023-02-11T22:48:11.385Z,100.00
2023-02-11T22:50:37.860Z,100.00
2023-02-11T22:53:04.298Z,100.00
2023-02-11T22:55:30.729Z,100.00
2023-02-11T22:57:57.196Z,100.00
2023-02-11T23:00:26.243Z,100.00
2023-02-11T23:02:52.689Z,100.00
2023-02-11T23:05:19.153Z,100.00
2023-02-11T23:07:45.560Z,100.00
2023-02-11T23:10:12.143Z,100.00
2023-02-11T23:12:38.798Z,100.00
2023-02-11T23:15:05.607Z,100.00
2023-02-11T23:17:32.045Z,100.00
2023-02-11T23:19:58.542Z,100.00
2023-02-11T23:22:25.014Z,100.00
2023-02-11T23:24:51.584Z,100.00
2023-02-11T23:27:18.059Z,100.00
2023-02-11T23:29:44.493Z,100.00
2023-02-11T23:32:11.251Z,100.00
2023-02-11T23:34:37.829Z,100.00
2023-02-11T23:37:04.267Z,100.00
2023-02-11T23:39:30.738Z,100.00
2023-02-11T23:41:59.010Z,100.00
2023-02-11T23:44:26.761Z,100.00
2023-02-11T23:46:53.448Z,100.00
2023-02-11T23:49:19.940Z,100.00
2023-02-11T23:51:46.503Z,100.00
2023-02-11T23:54:14.503Z,100.00
2023-02-11T23:56:42.658Z,100.00
2023-02-11T23:59:09.183Z,100.00
